Time;durP1;ratioP1;P1;durP2;ratioP2;P2;SDS_P1;SDS_P2;PMS_P1;PMS_P2;Temp;Humidity;BMP_temperature;BMP_pressure;BME280_temperature;BME280_humidity;BME280_pressure;Samples;Min_cycle;Max_cycle;Signal;HPM_P1;HPM_P2
2021/11/06 00:01:19;;;;;;;4.87;1.50;;;;;;;;;;4979980;28;20193;-77
2021/11/06 00:03:44;;;;;;;5.67;1.30;;;;;;;;;;4979158;28;20217;-77
2021/11/06 00:06:10;;;;;;;4.20;1.63;;;;;;;;;;4977772;28;20174;-77
2021/11/06 00:08:35;;;;;;;3.80;1.23;;;;;;;;;;4980365;28;20193;-77
2021/11/06 00:11:00;;;;;;;4.77;1.37;;;;;;;;;;4979483;28;20182;-77
2021/11/06 00:13:25;;;;;;;2.20;1.20;;;;;;;;;;4979913;28;20189;-77
2021/11/06 00:15:51;;;;;;;2.63;1.20;;;;;;;;;;4987699;28;20170;-77
2021/11/06 00:18:16;;;;;;;5.27;1.10;;;;;;;;;;4979141;28;20684;-77
2021/11/06 00:20:41;;;;;;;2.90;1.20;;;;;;;;;;4979415;28;20640;-77
2021/11/06 00:23:07;;;;;;;8.33;1.40;;;;;;;;;;4978674;28;20189;-77
2021/11/06 00:25:32;;;;;;;7.70;1.80;;;;;;;;;;4979002;28;20691;-77
2021/11/06 00:27:57;;;;;;;4.23;1.20;;;;;;;;;;4980931;28;20193;-76
2021/11/06 00:30:23;;;;;;;6.87;1.67;;;;;;;;;;4979159;28;20182;-76
2021/11/06 00:32:48;;;;;;;3.00;1.20;;;;;;;;;;4982028;28;20228;-76
2021/11/06 00:35:14;;;;;;;5.70;1.53;;;;;;;;;;4980352;28;20182;-76
2021/11/06 00:37:39;;;;;;;6.80;1.00;;;;;;;;;;4977474;28;20703;-77
2021/11/06 00:40:05;;;;;;;3.30;1.53;;;;;;;;;;4978455;28;20182;-77
2021/11/06 00:42:31;;;;;;;3.50;1.33;;;;;;;;;;4977663;28;20595;-77
2021/11/06 00:44:56;;;;;;;2.10;1.20;;;;;;;;;;4978202;28;20467;-76
2021/11/06 00:47:21;;;;;;;2.87;1.50;;;;;;;;;;4981564;28;20203;-77
2021/11/06 00:49:46;;;;;;;2.63;1.50;;;;;;;;;;4981193;28;20644;-76
2021/11/06 00:52:12;;;;;;;3.37;1.47;;;;;;;;;;4978232;28;20185;-76
2021/11/06 00:54:37;;;;;;;2.50;1.20;;;;;;;;;;4979515;28;20201;-77
2021/11/06 00:57:03;;;;;;;4.30;1.10;;;;;;;;;;4977433;28;20235;-77
2021/11/06 00:59:28;;;;;;;5.77;1.47;;;;;;;;;;4979870;28;20217;-77
2021/11/06 01:01:54;;;;;;;3.27;1.07;;;;;;;;;;4978555;28;20236;-78
2021/11/06 01:04:19;;;;;;;3.93;1.60;;;;;;;;;;4978261;28;20262;-77
2021/11/06 01:06:44;;;;;;;5.47;1.93;;;;;;;;;;4961351;28;20248;-77
2021/11/06 01:09:09;;;;;;;3.37;1.23;;;;;;;;;;4973367;28;20198;-76
2021/11/06 01:11:35;;;;;;;5.00;1.27;;;;;;;;;;4977281;28;20629;-77
2021/11/06 01:14:00;;;;;;;3.80;1.20;;;;;;;;;;4977468;28;20208;-77
2021/11/06 01:16:26;;;;;;;2.30;1.10;;;;;;;;;;4969929;28;20237;-76
2021/11/06 01:18:51;;;;;;;5.43;1.20;;;;;;;;;;4975659;28;20316;-77
2021/11/06 01:21:16;;;;;;;4.17;1.10;;;;;;;;;;4979369;28;20548;-76
2021/11/06 01:23:42;;;;;;;5.43;1.70;;;;;;;;;;4979674;28;20766;-76
2021/11/06 01:26:07;;;;;;;5.43;1.50;;;;;;;;;;4979191;28;20293;-77
2021/11/06 01:28:32;;;;;;;4.27;1.50;;;;;;;;;;4982788;28;20265;-77
2021/11/06 01:30:58;;;;;;;4.07;1.67;;;;;;;;;;4982659;28;20208;-77
2021/11/06 01:33:24;;;;;;;4.63;1.63;;;;;;;;;;4980931;28;20703;-77
2021/11/06 01:35:49;;;;;;;5.13;1.13;;;;;;;;;;4981055;28;20433;-76
2021/11/06 01:38:14;;;;;;;3.37;1.50;;;;;;;;;;4977266;28;20636;-77
2021/11/06 01:40:40;;;;;;;6.83;1.47;;;;;;;;;;4982715;28;20190;-77
2021/11/06 01:43:05;;;;;;;11.23;1.60;;;;;;;;;;4981947;28;20213;-77
2021/11/06 01:45:30;;;;;;;5.17;1.30;;;;;;;;;;4981243;28;20216;-77
2021/11/06 01:47:55;;;;;;;2.83;1.50;;;;;;;;;;4981483;28;20240;-77
2021/11/06 01:50:21;;;;;;;4.97;1.50;;;;;;;;;;4979136;28;20755;-77
2021/11/06 01:52:47;;;;;;;5.00;1.67;;;;;;;;;;4977540;28;20181;-76
2021/11/06 01:55:12;;;;;;;4.83;1.73;;;;;;;;;;4965853;28;20829;-76
2021/11/06 01:57:38;;;;;;;5.23;2.37;;;;;;;;;;4983080;28;20197;-76
2021/11/06 02:00:05;;;;;;;7.57;2.17;;;;;;;;;;4982944;28;20264;-76
2021/11/06 02:02:31;;;;;;;2.97;1.77;;;;;;;;;;4986589;28;20433;-76
2021/11/06 02:04:56;;;;;;;7.60;1.87;;;;;;;;;;4984951;28;20468;-76
2021/11/06 02:07:21;;;;;;;4.80;2.40;;;;;;;;;;4983412;28;20217;-77
2021/11/06 02:09:47;;;;;;;5.07;1.57;;;;;;;;;;4984845;28;20749;-77
2021/11/06 02:12:12;;;;;;;5.70;1.70;;;;;;;;;;4983836;28;20181;-77
2021/11/06 02:14:37;;;;;;;7.37;1.73;;;;;;;;;;4983721;28;20197;-77
2021/11/06 02:17:03;;;;;;;9.73;2.70;;;;;;;;;;4982270;28;20193;-76
2021/11/06 02:19:30;;;;;;;3.93;2.20;;;;;;;;;;4980252;28;20205;-77
2021/11/06 02:21:57;;;;;;;2.67;1.93;;;;;;;;;;4983938;28;20182;-77
2021/11/06 02:24:23;;;;;;;9.63;2.43;;;;;;;;;;4981914;28;20465;-78
2021/11/06 02:26:48;;;;;;;5.30;2.17;;;;;;;;;;4980361;28;20460;-77
2021/11/06 02:29:13;;;;;;;6.27;1.93;;;;;;;;;;4979339;28;20448;-77
2021/11/06 02:31:39;;;;;;;7.73;2.53;;;;;;;;;;4981978;28;20186;-77
2021/11/06 02:34:06;;;;;;;6.73;2.43;;;;;;;;;;4980920;28;20188;-77
2021/11/06 02:36:31;;;;;;;5.50;2.47;;;;;;;;;;4979995;28;20185;-77
2021/11/06 02:38:56;;;;;;;3.37;1.83;;;;;;;;;;4981154;28;20461;-76
2021/11/06 02:41:21;;;;;;;3.50;2.10;;;;;;;;;;4979485;28;20191;-76
2021/11/06 02:43:47;;;;;;;5.00;2.20;;;;;;;;;;4980193;28;20233;-77
2021/11/06 02:46:12;;;;;;;11.87;3.00;;;;;;;;;;4979899;28;20190;-76
2021/11/06 02:48:37;;;;;;;3.33;2.20;;;;;;;;;;4981602;28;20265;-77
2021/11/06 02:51:03;;;;;;;3.80;2.40;;;;;;;;;;4981846;28;20672;-77
2021/11/06 02:53:28;;;;;;;5.50;2.57;;;;;;;;;;4981097;28;20320;-77
2021/11/06 02:55:53;;;;;;;5.60;2.37;;;;;;;;;;4980826;28;22974;-77
2021/11/06 02:58:18;;;;;;;6.80;2.70;;;;;;;;;;4980287;28;20318;-77
2021/11/06 03:00:44;;;;;;;4.47;2.80;;;;;;;;;;4982091;28;20183;-77
2021/11/06 03:03:09;;;;;;;8.67;2.80;;;;;;;;;;4980776;28;20705;-76
2021/11/06 03:05:34;;;;;;;7.07;2.27;;;;;;;;;;4981254;28;20185;-76
2021/11/06 03:08:00;;;;;;;5.33;2.67;;;;;;;;;;4977947;28;20202;-77
2021/11/06 03:10:25;;;;;;;7.50;3.50;;;;;;;;;;4978739;28;20698;-77
2021/11/06 03:12:51;;;;;;;5.23;2.80;;;;;;;;;;4980090;28;20181;-77
2021/11/06 03:15:16;;;;;;;6.40;3.80;;;;;;;;;;4979493;28;20260;-77
2021/11/06 03:17:41;;;;;;;5.17;3.47;;;;;;;;;;4980572;28;20207;-76
2021/11/06 03:20:07;;;;;;;7.07;4.00;;;;;;;;;;4980666;28;20189;-77
2021/11/06 03:22:33;;;;;;;7.00;3.97;;;;;;;;;;4978876;28;20272;-77
2021/11/06 03:24:58;;;;;;;4.40;2.83;;;;;;;;;;4975447;28;20214;-77
2021/11/06 03:27:24;;;;;;;6.20;3.80;;;;;;;;;;4979866;28;20206;-76
2021/11/06 03:29:50;;;;;;;9.87;3.80;;;;;;;;;;4978815;28;20259;-77
2021/11/06 03:32:15;;;;;;;8.27;3.93;;;;;;;;;;4980637;28;20602;-77
2021/11/06 03:34:40;;;;;;;12.97;4.53;;;;;;;;;;4979090;28;20519;-77
2021/11/06 03:37:06;;;;;;;9.60;4.10;;;;;;;;;;4979467;28;20178;-77
2021/11/06 03:39:31;;;;;;;8.23;4.57;;;;;;;;;;4980721;28;20269;-76
2021/11/06 03:41:56;;;;;;;6.63;3.77;;;;;;;;;;4978136;28;20188;-77
2021/11/06 03:44:22;;;;;;;7.10;3.40;;;;;;;;;;4978158;28;20234;-78
2021/11/06 03:46:47;;;;;;;7.93;4.70;;;;;;;;;;4981116;28;20296;-77
2021/11/06 03:49:13;;;;;;;4.17;3.77;;;;;;;;;;4980328;28;20520;-77
2021/11/06 03:51:38;;;;;;;6.20;3.20;;;;;;;;;;4978809;28;20196;-77
2021/11/06 03:54:04;;;;;;;4.13;3.47;;;;;;;;;;4979818;28;20204;-77
2021/11/06 03:56:29;;;;;;;9.43;4.07;;;;;;;;;;4979053;28;20184;-77
2021/11/06 03:58:54;;;;;;;7.10;3.83;;;;;;;;;;4963554;28;20217;-77
2021/11/06 04:01:20;;;;;;;4.67;3.73;;;;;;;;;;4978829;28;20205;-77
2021/11/06 04:03:45;;;;;;;8.90;3.87;;;;;;;;;;4980542;28;20202;-77
2021/11/06 04:06:11;;;;;;;10.60;4.40;;;;;;;;;;4979988;28;20178;-77
2021/11/06 04:08:36;;;;;;;9.40;4.27;;;;;;;;;;4978633;28;20224;-77
2021/11/06 04:11:01;;;;;;;8.00;4.73;;;;;;;;;;4978633;28;20861;-77
2021/11/06 04:13:27;;;;;;;11.77;5.37;;;;;;;;;;4979113;28;20192;-77
2021/11/06 04:15:52;;;;;;;10.73;4.87;;;;;;;;;;4981302;28;20703;-77
2021/11/06 04:18:17;;;;;;;9.73;4.50;;;;;;;;;;4981138;28;20590;-77
2021/11/06 04:20:43;;;;;;;4.60;3.87;;;;;;;;;;4981236;28;20213;-77
2021/11/06 04:23:08;;;;;;;8.80;4.80;;;;;;;;;;4979057;28;20206;-77
2021/11/06 04:25:34;;;;;;;8.50;4.43;;;;;;;;;;4977837;28;20186;-78
2021/11/06 04:27:59;;;;;;;9.83;4.73;;;;;;;;;;4988197;28;20201;-77
2021/11/06 04:30:24;;;;;;;6.90;4.63;;;;;;;;;;4977881;28;20178;-77
2021/11/06 04:32:49;;;;;;;8.53;4.77;;;;;;;;;;4982904;28;20182;-77
2021/11/06 04:35:15;;;;;;;7.23;4.27;;;;;;;;;;4965510;28;20652;-77
2021/11/06 04:37:40;;;;;;;6.53;4.93;;;;;;;;;;4974272;28;20214;-77
2021/11/06 04:40:06;;;;;;;7.73;4.87;;;;;;;;;;4980267;28;20178;-77
2021/11/06 04:42:32;;;;;;;12.40;5.10;;;;;;;;;;4978405;28;20565;-77
2021/11/06 04:44:57;;;;;;;13.43;5.43;;;;;;;;;;4979481;28;20460;-77
2021/11/06 04:47:22;;;;;;;7.20;5.80;;;;;;;;;;4981711;28;20210;-77
2021/11/06 04:49:48;;;;;;;8.27;5.80;;;;;;;;;;4982382;28;20185;-77
2021/11/06 04:52:13;;;;;;;9.20;5.80;;;;;;;;;;4978758;28;20186;-76
2021/11/06 04:54:38;;;;;;;10.50;5.60;;;;;;;;;;4977547;28;20746;-77
2021/11/06 04:57:03;;;;;;;8.90;6.33;;;;;;;;;;4976285;28;20182;-77
2021/11/06 04:59:29;;;;;;;10.40;5.70;;;;;;;;;;4979128;28;20194;-77
2021/11/06 05:01:54;;;;;;;12.07;6.33;;;;;;;;;;4979089;28;20603;-77
2021/11/06 05:04:19;;;;;;;7.90;5.17;;;;;;;;;;4981602;28;20213;-77
2021/11/06 05:06:44;;;;;;;9.63;6.47;;;;;;;;;;4976630;28;20722;-77
2021/11/06 05:09:10;;;;;;;7.97;6.47;;;;;;;;;;4978679;28;20288;-77
2021/11/06 05:11:35;;;;;;;11.33;5.60;;;;;;;;;;4978636;28;21068;-78
2021/11/06 05:14:00;;;;;;;7.47;5.30;;;;;;;;;;4978546;28;20574;-78
2021/11/06 05:16:26;;;;;;;7.97;5.80;;;;;;;;;;4979944;28;20193;-78
2021/11/06 05:18:54;;;;;;;11.33;7.17;;;;;;;;;;4977522;28;20222;-77
2021/11/06 05:21:21;;;;;;;13.23;7.07;;;;;;;;;;4979832;28;20453;-78
2021/11/06 05:23:46;;;;;;;10.90;7.30;;;;;;;;;;4979706;28;20928;-78
2021/11/06 05:26:11;;;;;;;9.03;6.50;;;;;;;;;;4980409;28;20453;-79
2021/11/06 05:28:36;;;;;;;8.30;7.00;;;;;;;;;;4979732;28;20240;-78
2021/11/06 05:31:02;;;;;;;11.13;6.80;;;;;;;;;;4979133;28;20223;-78
2021/11/06 05:33:27;;;;;;;11.03;7.07;;;;;;;;;;4977641;28;20178;-78
2021/11/06 05:35:52;;;;;;;12.07;7.10;;;;;;;;;;4961705;28;20182;-78
2021/11/06 05:38:17;;;;;;;13.93;7.67;;;;;;;;;;4980060;28;20336;-78
2021/11/06 05:40:43;;;;;;;11.63;7.67;;;;;;;;;;4980152;28;20177;-78
2021/11/06 05:43:08;;;;;;;11.13;7.90;;;;;;;;;;4960180;28;20206;-79
2021/11/06 05:45:33;;;;;;;17.67;7.70;;;;;;;;;;4979566;28;20683;-78
2021/11/06 05:47:58;;;;;;;10.77;7.43;;;;;;;;;;4976331;28;20221;-78
2021/11/06 05:50:24;;;;;;;15.93;8.30;;;;;;;;;;4979600;28;20326;-78
2021/11/06 05:52:49;;;;;;;14.40;9.10;;;;;;;;;;4979054;28;20178;-77
2021/11/06 05:55:15;;;;;;;14.47;8.97;;;;;;;;;;4979181;28;20182;-78
2021/11/06 05:57:40;;;;;;;11.30;8.30;;;;;;;;;;4981170;28;20213;-78
2021/11/06 06:00:10;;;;;;;12.03;8.73;;;;;;;;;;4979113;28;20434;-79
2021/11/06 06:02:36;;;;;;;19.03;9.60;;;;;;;;;;4980578;28;20225;-79
2021/11/06 06:05:01;;;;;;;12.70;9.30;;;;;;;;;;4980282;28;20468;-77
2021/11/06 06:07:26;;;;;;;13.53;10.10;;;;;;;;;;4985364;28;20209;-78
2021/11/06 06:09:54;;;;;;;18.37;10.00;;;;;;;;;;4979035;28;20660;-78
2021/11/06 06:12:19;;;;;;;14.20;9.33;;;;;;;;;;4985509;28;20202;-79
2021/11/06 06:14:44;;;;;;;16.87;9.57;;;;;;;;;;4965766;28;20530;-79
2021/11/06 06:17:09;;;;;;;13.13;9.77;;;;;;;;;;4981232;28;20264;-78
2021/11/06 06:19:35;;;;;;;15.90;10.60;;;;;;;;;;4984131;28;20240;-78
2021/11/06 06:22:00;;;;;;;16.13;10.20;;;;;;;;;;4971168;28;20232;-78
2021/11/06 06:24:25;;;;;;;15.93;11.00;;;;;;;;;;4982482;28;20205;-78
2021/11/06 06:26:50;;;;;;;17.17;12.03;;;;;;;;;;4962694;28;20186;-79
2021/11/06 06:29:16;;;;;;;17.83;11.80;;;;;;;;;;4981131;28;20268;-78
2021/11/06 06:31:41;;;;;;;14.00;11.37;;;;;;;;;;4967264;28;20194;-78
2021/11/06 06:34:06;;;;;;;21.70;11.47;;;;;;;;;;4988096;28;20221;-78
2021/11/06 06:36:32;;;;;;;16.93;12.77;;;;;;;;;;4964124;28;20189;-79
2021/11/06 06:38:57;;;;;;;16.20;12.60;;;;;;;;;;4981277;28;20285;-78
2021/11/06 06:41:22;;;;;;;17.80;11.80;;;;;;;;;;4983185;28;20624;-79
2021/11/06 06:43:47;;;;;;;14.80;11.80;;;;;;;;;;4981466;28;20268;-78
2021/11/06 06:46:13;;;;;;;17.97;12.70;;;;;;;;;;4984403;28;20205;-79
2021/11/06 06:48:38;;;;;;;15.30;12.70;;;;;;;;;;4981533;28;20278;-78
2021/11/06 06:51:03;;;;;;;18.17;13.17;;;;;;;;;;4984556;28;20191;-78
2021/11/06 06:53:28;;;;;;;17.77;14.40;;;;;;;;;;4983462;28;20276;-79
2021/11/06 06:55:54;;;;;;;21.60;14.43;;;;;;;;;;4980815;28;20261;-79
2021/11/06 06:58:19;;;;;;;19.73;14.67;;;;;;;;;;4971839;28;20685;-79
2021/11/06 07:00:45;;;;;;;16.77;13.87;;;;;;;;;;4982252;28;20190;-78
2021/11/06 07:03:10;;;;;;;20.17;14.20;;;;;;;;;;4980371;28;20546;-78
2021/11/06 07:05:35;;;;;;;18.37;14.27;;;;;;;;;;4980934;28;20182;-78
2021/11/06 07:08:00;;;;;;;23.77;16.43;;;;;;;;;;4980530;28;20193;-78
2021/11/06 07:10:26;;;;;;;18.30;13.93;;;;;;;;;;4981003;28;20549;-78
2021/11/06 07:12:52;;;;;;;23.03;15.97;;;;;;;;;;4982249;28;20178;-77
2021/11/06 07:15:17;;;;;;;19.17;14.80;;;;;;;;;;4976285;28;20201;-78
2021/11/06 07:17:42;;;;;;;17.53;14.10;;;;;;;;;;4979794;28;20581;-78
2021/11/06 07:20:08;;;;;;;15.57;13.87;;;;;;;;;;4979934;28;20179;-77
2021/11/06 07:22:35;;;;;;;16.53;13.70;;;;;;;;;;4982220;28;20588;-78
2021/11/06 07:25:00;;;;;;;20.50;13.53;;;;;;;;;;4982688;28;20461;-77
2021/11/06 07:27:25;;;;;;;18.50;14.23;;;;;;;;;;4981377;28;20990;-78
2021/11/06 07:29:51;;;;;;;18.60;14.73;;;;;;;;;;4964571;28;20320;-78
2021/11/06 07:32:16;;;;;;;19.80;15.63;;;;;;;;;;4981909;28;20197;-78
2021/11/06 07:34:42;;;;;;;17.60;15.67;;;;;;;;;;4979946;28;20259;-78
2021/11/06 07:37:07;;;;;;;15.47;13.50;;;;;;;;;;4983130;28;20564;-78
2021/11/06 07:39:33;;;;;;;18.50;14.67;;;;;;;;;;4980424;28;20440;-78
2021/11/06 07:41:58;;;;;;;16.57;13.90;;;;;;;;;;4979814;28;20186;-78
2021/11/06 07:44:23;;;;;;;18.83;13.87;;;;;;;;;;4965940;28;20213;-78
2021/11/06 07:46:49;;;;;;;16.73;14.97;;;;;;;;;;4979470;28;20181;-78
2021/11/06 07:49:14;;;;;;;19.67;14.07;;;;;;;;;;4980322;28;21512;-78
2021/11/06 07:51:39;;;;;;;22.70;14.40;;;;;;;;;;4979060;28;20185;-79
2021/11/06 07:54:05;;;;;;;17.10;13.43;;;;;;;;;;4981321;28;20228;-78
2021/11/06 07:56:30;;;;;;;27.10;15.73;;;;;;;;;;4981139;28;20189;-78
2021/11/06 07:58:57;;;;;;;20.13;14.57;;;;;;;;;;4961553;28;20202;-78
2021/11/06 08:01:22;;;;;;;20.43;15.40;;;;;;;;;;4981216;28;20193;-79
2021/11/06 08:03:47;;;;;;;19.83;14.67;;;;;;;;;;4978147;28;20890;-78
2021/11/06 08:06:13;;;;;;;26.20;14.77;;;;;;;;;;4977135;28;20214;-79
2021/11/06 08:08:38;;;;;;;21.50;15.73;;;;;;;;;;4976323;28;20201;-77
2021/11/06 08:11:03;;;;;;;20.30;15.13;;;;;;;;;;4978227;28;20268;-79
2021/11/06 08:13:31;;;;;;;24.73;15.70;;;;;;;;;;4980297;28;20210;-80
2021/11/06 08:15:56;;;;;;;22.00;15.00;;;;;;;;;;4970725;28;20341;-79
2021/11/06 08:18:22;;;;;;;15.80;13.53;;;;;;;;;;4976727;28;20486;-78
2021/11/06 08:20:47;;;;;;;20.30;14.47;;;;;;;;;;4967760;28;20194;-79
2021/11/06 08:23:13;;;;;;;19.33;14.53;;;;;;;;;;4981863;28;20205;-80
2021/11/06 08:25:38;;;;;;;19.33;14.80;;;;;;;;;;4980141;28;20822;-80
2021/11/06 08:28:04;;;;;;;17.93;14.73;;;;;;;;;;4970368;28;20760;-80
2021/11/06 08:30:29;;;;;;;20.60;14.23;;;;;;;;;;4964676;28;20698;-76
2021/11/06 08:32:56;;;;;;;16.50;12.53;;;;;;;;;;4977871;28;20182;-77
2021/11/06 08:35:22;;;;;;;21.60;14.60;;;;;;;;;;4980361;28;20197;-78
2021/11/06 08:37:48;;;;;;;23.60;15.90;;;;;;;;;;4975541;28;20460;-79
2021/11/06 08:40:13;;;;;;;21.13;15.70;;;;;;;;;;4981352;28;20426;-79
2021/11/06 08:42:39;;;;;;;18.87;14.40;;;;;;;;;;4981041;28;20472;-80
2021/11/06 08:45:06;;;;;;;19.13;13.90;;;;;;;;;;4980261;28;20285;-78
2021/11/06 08:47:31;;;;;;;20.23;15.23;;;;;;;;;;4979827;28;20456;-78
2021/11/06 08:49:57;;;;;;;20.03;15.83;;;;;;;;;;4980035;28;20448;-80
2021/11/06 08:52:23;;;;;;;20.70;16.33;;;;;;;;;;4986714;28;20186;-80
2021/11/06 08:54:49;;;;;;;21.67;16.27;;;;;;;;;;4986771;28;20192;-78
2021/11/06 08:57:14;;;;;;;19.73;17.73;;;;;;;;;;4979775;28;20202;-80
2021/11/06 08:59:40;;;;;;;19.13;17.10;;;;;;;;;;4978754;28;20436;-80
2021/11/06 09:02:05;;;;;;;19.20;16.37;;;;;;;;;;4980793;28;20178;-80
2021/11/06 09:04:31;;;;;;;25.70;18.83;;;;;;;;;;4986501;28;20667;-80
2021/11/06 09:06:56;;;;;;;23.73;17.30;;;;;;;;;;4987657;28;20189;-80
2021/11/06 09:09:22;;;;;;;22.33;17.60;;;;;;;;;;4983291;28;20174;-80
2021/11/06 09:11:48;;;;;;;24.43;18.93;;;;;;;;;;4979790;28;20213;-80
2021/11/06 09:14:16;;;;;;;19.17;17.10;;;;;;;;;;4979335;28;20182;-79
2021/11/06 09:16:42;;;;;;;29.57;19.27;;;;;;;;;;4980304;28;20437;-79
2021/11/06 09:19:07;;;;;;;33.30;21.03;;;;;;;;;;4980362;28;21036;-79
2021/11/06 09:21:33;;;;;;;23.60;18.00;;;;;;;;;;4959613;28;20306;-79
2021/11/06 09:24:02;;;;;;;21.60;15.93;;;;;;;;;;4978769;28;21166;-78
2021/11/06 09:26:29;;;;;;;30.93;20.10;;;;;;;;;;4979572;28;20178;-78
2021/11/06 09:28:54;;;;;;;22.00;16.77;;;;;;;;;;4980567;28;20456;-78
2021/11/06 09:31:19;;;;;;;21.93;18.10;;;;;;;;;;4979825;28;20491;-78
2021/11/06 09:33:45;;;;;;;25.07;16.13;;;;;;;;;;4979487;28;20182;-78
2021/11/06 09:36:11;;;;;;;24.73;18.73;;;;;;;;;;4981165;28;20204;-78
2021/11/06 09:38:37;;;;;;;21.50;17.40;;;;;;;;;;4980660;28;20206;-78
2021/11/06 09:41:06;;;;;;;21.80;17.13;;;;;;;;;;4984977;28;20482;-78
2021/11/06 09:43:31;;;;;;;24.57;16.47;;;;;;;;;;4984839;28;20225;-79
2021/11/06 09:45:59;;;;;;;23.97;16.30;;;;;;;;;;4983889;28;20450;-78
2021/11/06 09:48:25;;;;;;;22.83;16.17;;;;;;;;;;4981270;28;20202;-79
2021/11/06 09:50:51;;;;;;;19.63;15.47;;;;;;;;;;4983340;28;20515;-80
2021/11/06 09:53:16;;;;;;;23.70;17.30;;;;;;;;;;4983950;28;20491;-80
2021/11/06 09:55:42;;;;;;;25.10;16.50;;;;;;;;;;4975214;28;20947;-78
2021/11/06 09:58:07;;;;;;;25.97;17.13;;;;;;;;;;4985524;28;20206;-78
2021/11/06 10:00:33;;;;;;;22.57;16.67;;;;;;;;;;4985122;28;20178;-78
2021/11/06 10:02:58;;;;;;;24.90;16.57;;;;;;;;;;4971118;28;20185;-78
2021/11/06 10:05:42;;;;;;;18.27;15.07;;;;;;;;;;4983877;28;20278;-78
2021/11/06 10:08:17;;;;;;;26.77;17.50;;;;;;;;;;4983293;28;20206;-77
2021/11/06 10:10:44;;;;;;;20.40;16.50;;;;;;;;;;4983759;28;20444;-78
2021/11/06 10:13:09;;;;;;;24.53;15.00;;;;;;;;;;4981728;28;20436;-78
2021/11/06 10:15:40;;;;;;;19.43;15.80;;;;;;;;;;4984198;28;20433;-78
2021/11/06 10:18:18;;;;;;;19.40;15.30;;;;;;;;;;4984986;28;20210;-78
2021/11/06 10:20:45;;;;;;;22.40;15.80;;;;;;;;;;4981918;28;20440;-78
2021/11/06 10:23:11;;;;;;;21.60;15.77;;;;;;;;;;4985338;28;20452;-78
2021/11/06 10:25:37;;;;;;;24.47;16.80;;;;;;;;;;4983878;28;20432;-78
2021/11/06 10:28:04;;;;;;;25.73;15.70;;;;;;;;;;4984968;28;20510;-78
2021/11/06 10:30:31;;;;;;;24.60;16.77;;;;;;;;;;4979075;28;20436;-78
2021/11/06 10:32:59;;;;;;;19.03;15.80;;;;;;;;;;4983680;28;20432;-78
2021/11/06 10:35:26;;;;;;;21.97;16.50;;;;;;;;;;4981835;28;20444;-78
2021/11/06 10:38:21;;;;;;;22.40;16.50;;;;;;;;;;4987968;28;20487;-79
2021/11/06 10:40:57;;;;;;;23.20;15.83;;;;;;;;;;4961788;28;20948;-77
2021/11/06 10:43:24;;;;;;;22.23;15.37;;;;;;;;;;4979272;28;20961;-76
2021/11/06 10:45:50;;;;;;;18.60;14.53;;;;;;;;;;4978565;28;20428;-76
2021/11/06 10:48:16;;;;;;;25.80;16.33;;;;;;;;;;4982222;28;20821;-75
2021/11/06 10:50:45;;;;;;;19.63;14.83;;;;;;;;;;4983298;28;20436;-76
2021/11/06 10:53:12;;;;;;;23.13;16.00;;;;;;;;;;4983653;28;20433;-77
2021/11/06 10:55:44;;;;;;;21.73;15.87;;;;;;;;;;4982667;28;21002;-77
2021/11/06 10:58:21;;;;;;;24.90;14.80;;;;;;;;;;4983365;28;20459;-75
2021/11/06 11:00:50;;;;;;;23.57;15.83;;;;;;;;;;4984115;28;20474;-76
2021/11/06 11:03:21;;;;;;;21.23;15.60;;;;;;;;;;4964774;28;20473;-77
2021/11/06 11:05:46;;;;;;;22.87;15.20;;;;;;;;;;4979695;28;20430;-78
2021/11/06 11:08:14;;;;;;;30.43;17.30;;;;;;;;;;4977462;28;20456;-77
2021/11/06 11:10:40;;;;;;;24.83;15.27;;;;;;;;;;4985678;28;20174;-77
2021/11/06 11:13:17;;;;;;;18.53;14.20;;;;;;;;;;4983679;28;20520;-77
2021/11/06 11:15:44;;;;;;;19.90;14.30;;;;;;;;;;4979641;28;20548;-77
2021/11/06 11:18:29;;;;;;;26.53;14.83;;;;;;;;;;4976675;28;20456;-77
2021/11/06 11:20:54;;;;;;;20.57;13.70;;;;;;;;;;4975286;28;20433;-77
2021/11/06 11:23:22;;;;;;;17.23;12.23;;;;;;;;;;4981701;28;20563;-77
2021/11/06 11:25:47;;;;;;;18.90;12.83;;;;;;;;;;4979857;28;20173;-77
2021/11/06 11:28:13;;;;;;;18.30;11.67;;;;;;;;;;4980327;28;20465;-77
2021/11/06 11:30:39;;;;;;;20.13;12.90;;;;;;;;;;4979164;28;20182;-77
2021/11/06 11:33:04;;;;;;;19.80;12.53;;;;;;;;;;4971204;28;20186;-77
2021/11/06 11:35:30;;;;;;;18.43;11.83;;;;;;;;;;4979250;28;20429;-77
2021/11/06 11:37:56;;;;;;;20.63;12.10;;;;;;;;;;4965392;28;20198;-79
2021/11/06 11:40:23;;;;;;;18.67;11.87;;;;;;;;;;4968411;28;20179;-78
2021/11/06 11:42:57;;;;;;;21.80;12.70;;;;;;;;;;4983969;28;20456;-79
2021/11/06 11:45:40;;;;;;;20.27;10.93;;;;;;;;;;4982822;28;20441;-79
2021/11/06 11:48:06;;;;;;;17.90;11.13;;;;;;;;;;4964529;28;20454;-78
2021/11/06 11:50:32;;;;;;;16.83;11.50;;;;;;;;;;4983138;28;20473;-79
2021/11/06 11:53:01;;;;;;;28.67;12.80;;;;;;;;;;4978215;28;20169;-78
2021/11/06 11:55:44;;;;;;;20.97;11.30;;;;;;;;;;4959329;28;20493;-79
2021/11/06 11:58:12;;;;;;;19.00;10.87;;;;;;;;;;4969375;28;20449;-79
2021/11/06 12:00:42;;;;;;;15.20;10.33;;;;;;;;;;4980853;28;20434;-79
2021/11/06 12:03:08;;;;;;;24.10;11.93;;;;;;;;;;4981393;28;20417;-79
2021/11/06 12:05:37;;;;;;;21.20;10.70;;;;;;;;;;4980823;28;20429;-79
2021/11/06 12:08:09;;;;;;;17.20;10.70;;;;;;;;;;4982426;28;20449;-77
2021/11/06 12:10:35;;;;;;;23.53;11.93;;;;;;;;;;4980678;28;20417;-79
2021/11/06 12:13:01;;;;;;;18.43;11.00;;;;;;;;;;4981108;28;20508;-79
2021/11/06 12:15:45;;;;;;;23.20;11.93;;;;;;;;;;4982854;28;20982;-80
2021/11/06 12:18:29;;;;;;;18.60;10.90;;;;;;;;;;4981715;28;20449;-76
2021/11/06 12:21:18;;;;;;;17.73;10.57;;;;;;;;;;4980203;28;20426;-79
2021/11/06 12:23:48;;;;;;;15.77;9.73;;;;;;;;;;4982460;28;20472;-79
2021/11/06 12:26:14;;;;;;;25.27;13.03;;;;;;;;;;4980796;28;20520;-79
2021/11/06 12:28:41;;;;;;;20.73;12.00;;;;;;;;;;4979308;28;20828;-78
2021/11/06 12:31:26;;;;;;;17.70;11.53;;;;;;;;;;4973993;28;20448;-79
2021/11/06 12:33:51;;;;;;;18.57;11.13;;;;;;;;;;4976664;28;20480;-79
2021/11/06 12:36:21;;;;;;;20.10;11.00;;;;;;;;;;4970481;28;20472;-79
2021/11/06 12:38:46;;;;;;;18.90;12.37;;;;;;;;;;4979123;28;20244;-79
2021/11/06 12:41:12;;;;;;;24.00;12.60;;;;;;;;;;4981149;28;20468;-80
2021/11/06 12:43:50;;;;;;;23.73;11.00;;;;;;;;;;4981752;28;20212;-79
2021/11/06 12:46:18;;;;;;;20.43;11.93;;;;;;;;;;4981688;28;20182;-79
2021/11/06 12:48:45;;;;;;;21.03;12.23;;;;;;;;;;4980475;28;20446;-79
2021/11/06 12:51:11;;;;;;;23.17;12.50;;;;;;;;;;4965927;28;20476;-79
2021/11/06 12:53:39;;;;;;;24.23;13.77;;;;;;;;;;4977158;28;20447;-79
2021/11/06 12:56:06;;;;;;;24.53;12.33;;;;;;;;;;4977620;28;20517;-80
2021/11/06 12:58:32;;;;;;;19.53;11.50;;;;;;;;;;4978622;28;20464;-80
2021/11/06 13:01:11;;;;;;;21.00;11.83;;;;;;;;;;4955427;28;20490;-79
2021/11/06 13:03:40;;;;;;;21.53;11.90;;;;;;;;;;4975708;28;20456;-80
2021/11/06 13:06:16;;;;;;;15.33;10.47;;;;;;;;;;4978273;28;20437;-79
2021/11/06 13:08:41;;;;;;;16.80;10.87;;;;;;;;;;4979091;28;20480;-79
2021/11/06 13:11:06;;;;;;;17.43;10.13;;;;;;;;;;4982143;28;20464;-79
2021/11/06 13:13:32;;;;;;;17.20;10.57;;;;;;;;;;4975926;28;20715;-79
2021/11/06 13:15:58;;;;;;;21.90;11.20;;;;;;;;;;4985302;28;20753;-78
2021/11/06 13:18:24;;;;;;;15.10;10.53;;;;;;;;;;4968007;28;20617;-78
2021/11/06 13:20:53;;;;;;;18.20;11.10;;;;;;;;;;4981466;28;20509;-79
2021/11/06 13:23:18;;;;;;;20.90;11.37;;;;;;;;;;4983197;28;20425;-78
2021/11/06 13:25:45;;;;;;;17.60;10.73;;;;;;;;;;4982290;28;20531;-78
2021/11/06 13:28:14;;;;;;;22.10;10.10;;;;;;;;;;4982395;28;20205;-78
2021/11/06 13:30:42;;;;;;;18.27;9.70;;;;;;;;;;4984678;28;20572;-78
2021/11/06 13:33:18;;;;;;;20.40;10.80;;;;;;;;;;4985073;28;20437;-78
2021/11/06 13:35:49;;;;;;;18.30;10.53;;;;;;;;;;4982277;28;20428;-78
2021/11/06 13:38:15;;;;;;;20.00;10.60;;;;;;;;;;4984062;28;20499;-78
2021/11/06 13:40:41;;;;;;;15.50;9.97;;;;;;;;;;4983726;28;20437;-78
2021/11/06 13:43:13;;;;;;;18.67;10.30;;;;;;;;;;4982687;28;20177;-79
2021/11/06 13:45:39;;;;;;;15.50;9.93;;;;;;;;;;4985430;28;20511;-78
2021/11/06 13:48:04;;;;;;;17.00;9.47;;;;;;;;;;4984870;28;20531;-79
2021/11/06 13:50:29;;;;;;;19.03;9.90;;;;;;;;;;4985268;28;20189;-78
2021/11/06 13:52:54;;;;;;;19.10;9.60;;;;;;;;;;4983194;28;20604;-79
2021/11/06 13:55:20;;;;;;;19.43;9.90;;;;;;;;;;4986076;28;20174;-78
2021/11/06 13:57:49;;;;;;;19.07;9.80;;;;;;;;;;4984191;28;20570;-79
2021/11/06 14:00:17;;;;;;;15.40;9.50;;;;;;;;;;4983764;28;20205;-79
2021/11/06 14:02:45;;;;;;;17.00;8.33;;;;;;;;;;4983655;28;20977;-79
2021/11/06 14:05:12;;;;;;;16.73;8.40;;;;;;;;;;4984526;28;20492;-79
2021/11/06 14:07:42;;;;;;;15.57;8.00;;;;;;;;;;4984199;28;20484;-78
2021/11/06 14:10:09;;;;;;;16.37;8.60;;;;;;;;;;4985241;28;20438;-78
2021/11/06 14:12:42;;;;;;;18.30;8.33;;;;;;;;;;4966703;28;20938;-78
2021/11/06 14:15:09;;;;;;;19.17;8.50;;;;;;;;;;4984819;28;20463;-78
2021/11/06 14:17:52;;;;;;;13.87;6.80;;;;;;;;;;4982197;28;20518;-78
2021/11/06 14:20:20;;;;;;;11.80;7.83;;;;;;;;;;4965951;28;20449;-78
2021/11/06 14:22:47;;;;;;;13.70;7.13;;;;;;;;;;4982248;28;20492;-78
2021/11/06 14:25:29;;;;;;;15.07;7.33;;;;;;;;;;4984592;28;20464;-78